sensor_id;sensor_type;location;lat;lon;timestamp;P1;durP1;ratioP1;P2;durP2;ratioP2
8777;SDS011;4425;50.872;4.712;2022-08-01T00:02:26;1.83;;;1.73;;
8777;SDS011;4425;50.872;4.712;2022-08-01T00:04:55;2.55;;;1.83;;
8777;SDS011;4425;50.872;4.712;2022-08-01T00:07:25;2.97;;;2.10;;
8777;SDS011;4425;50.872;4.712;2022-08-01T00:09:52;1.95;;;1.83;;
8777;SDS011;4425;50.872;4.712;2022-08-01T00:12:22;1.90;;;1.80;;
8777;SDS011;4425;50.872;4.712;2022-08-01T00:14:49;2.60;;;1.90;;
8777;SDS011;4425;50.872;4.712;2022-08-01T00:17:17;2.17;;;2.00;;
8777;SDS011;4425;50.872;4.712;2022-08-01T00:19:44;2.22;;;2.10;;
8777;SDS011;4425;50.872;4.712;2022-08-01T00:22:12;3.95;;;2.78;;
8777;SDS011;4425;50.872;4.712;2022-08-01T00:24:39;5.82;;;2.90;;
8777;SDS011;4425;50.872;4.712;2022-08-01T00:27:06;6.90;;;3.13;;
8777;SDS011;4425;50.872;4.712;2022-08-01T00:29:35;5.25;;;3.13;;
8777;SDS011;4425;50.872;4.712;2022-08-01T00:32:08;3.47;;;3.13;;
8777;SDS011;4425;50.872;4.712;2022-08-01T00:34:36;7.03;;;3.60;;
8777;SDS011;4425;50.872;4.712;2022-08-01T00:37:03;3.65;;;3.30;;
8777;SDS011;4425;50.872;4.712;2022-08-01T00:39:31;3.15;;;2.95;;
8777;SDS011;4425;50.872;4.712;2022-08-01T00:41:59;4.55;;;3.28;;
8777;SDS011;4425;50.872;4.712;2022-08-01T00:44:27;5.18;;;3.40;;
8777;SDS011;4425;50.872;4.712;2022-08-01T00:46:57;5.90;;;3.10;;
8777;SDS011;4425;50.872;4.712;2022-08-01T00:49:25;3.50;;;3.10;;
8777;SDS011;4425;50.872;4.712;2022-08-01T00:54:41;5.07;;;3.50;;
8777;SDS011;4425;50.872;4.712;2022-08-01T00:59:49;3.70;;;3.40;;
8777;SDS011;4425;50.872;4.712;2022-08-01T01:02:22;5.90;;;3.70;;
8777;SDS011;4425;50.872;4.712;2022-08-01T01:04:49;5.63;;;3.80;;
8777;SDS011;4425;50.872;4.712;2022-08-01T01:07:23;4.07;;;3.35;;
8777;SDS011;4425;50.872;4.712;2022-08-01T01:12:34;5.70;;;3.90;;
8777;SDS011;4425;50.872;4.712;2022-08-01T01:15:06;5.40;;;4.03;;
8777;SDS011;4425;50.872;4.712;2022-08-01T01:17:43;5.70;;;3.80;;
8777;SDS011;4425;50.872;4.712;2022-08-01T01:20:13;5.25;;;4.15;;
8777;SDS011;4425;50.872;4.712;2022-08-01T01:22:49;5.25;;;4.28;;
8777;SDS011;4425;50.872;4.712;2022-08-01T01:25:26;5.07;;;4.13;;
8777;SDS011;4425;50.872;4.712;2022-08-01T01:28:08;6.43;;;4.50;;
8777;SDS011;4425;50.872;4.712;2022-08-01T01:30:44;5.90;;;4.25;;
8777;SDS011;4425;50.872;4.712;2022-08-01T01:33:16;5.85;;;4.15;;
8777;SDS011;4425;50.872;4.712;2022-08-01T01:35:47;5.20;;;4.43;;
8777;SDS011;4425;50.872;4.712;2022-08-01T01:38:19;6.93;;;4.45;;
8777;SDS011;4425;50.872;4.712;2022-08-01T01:40:50;4.70;;;4.25;;
8777;SDS011;4425;50.872;4.712;2022-08-01T01:43:21;6.70;;;4.35;;
8777;SDS011;4425;50.872;4.712;2022-08-01T01:45:50;6.18;;;4.82;;
8777;SDS011;4425;50.872;4.712;2022-08-01T01:50:53;6.50;;;4.72;;
8777;SDS011;4425;50.872;4.712;2022-08-01T01:56:05;7.88;;;4.47;;
8777;SDS011;4425;50.872;4.712;2022-08-01T01:58:33;6.20;;;4.88;;
8777;SDS011;4425;50.872;4.712;2022-08-01T02:01:04;6.57;;;4.68;;
8777;SDS011;4425;50.872;4.712;2022-08-01T02:03:32;5.18;;;4.65;;
8777;SDS011;4425;50.872;4.712;2022-08-01T02:06:03;6.50;;;4.57;;
8777;SDS011;4425;50.872;4.712;2022-08-01T02:08:30;7.70;;;4.75;;
8777;SDS011;4425;50.872;4.712;2022-08-01T02:11:01;6.00;;;4.22;;
8777;SDS011;4425;50.872;4.712;2022-08-01T02:13:46;5.55;;;4.30;;
8777;SDS011;4425;50.872;4.712;2022-08-01T02:16:23;4.78;;;3.85;;
8777;SDS011;4425;50.872;4.712;2022-08-01T02:18:52;4.65;;;4.00;;
8777;SDS011;4425;50.872;4.712;2022-08-01T02:21:22;7.28;;;4.40;;
8777;SDS011;4425;50.872;4.712;2022-08-01T02:23:53;6.32;;;4.28;;
8777;SDS011;4425;50.872;4.712;2022-08-01T02:26:24;4.55;;;4.15;;
8777;SDS011;4425;50.872;4.712;2022-08-01T02:28:54;5.10;;;4.60;;
8777;SDS011;4425;50.872;4.712;2022-08-01T02:31:28;7.18;;;4.70;;
8777;SDS011;4425;50.872;4.712;2022-08-01T02:34:02;4.65;;;4.25;;
8777;SDS011;4425;50.872;4.712;2022-08-01T02:36:32;5.65;;;4.70;;
8777;SDS011;4425;50.872;4.712;2022-08-01T02:39:03;4.90;;;4.45;;
8777;SDS011;4425;50.872;4.712;2022-08-01T02:41:38;5.75;;;5.13;;
8777;SDS011;4425;50.872;4.712;2022-08-01T02:44:09;7.93;;;4.60;;
8777;SDS011;4425;50.872;4.712;2022-08-01T02:46:42;4.97;;;4.50;;
8777;SDS011;4425;50.872;4.712;2022-08-01T02:49:16;6.65;;;5.22;;
8777;SDS011;4425;50.872;4.712;2022-08-01T02:51:46;5.55;;;5.05;;
8777;SDS011;4425;50.872;4.712;2022-08-01T02:54:18;5.72;;;5.13;;
8777;SDS011;4425;50.872;4.712;2022-08-01T02:56:48;5.82;;;5.25;;
8777;SDS011;4425;50.872;4.712;2022-08-01T03:02:18;9.32;;;6.60;;
8777;SDS011;4425;50.872;4.712;2022-08-01T03:04:50;8.35;;;7.45;;
8777;SDS011;4425;50.872;4.712;2022-08-01T03:07:20;8.80;;;7.90;;
8777;SDS011;4425;50.872;4.712;2022-08-01T03:09:49;8.70;;;7.88;;
8777;SDS011;4425;50.872;4.712;2022-08-01T03:12:18;9.95;;;8.48;;
8777;SDS011;4425;50.872;4.712;2022-08-01T03:14:56;11.32;;;8.27;;
8777;SDS011;4425;50.872;4.712;2022-08-01T03:17:27;13.25;;;8.75;;
8777;SDS011;4425;50.872;4.712;2022-08-01T03:19:56;11.43;;;8.43;;
8777;SDS011;4425;50.872;4.712;2022-08-01T03:22:29;11.65;;;9.15;;
8777;SDS011;4425;50.872;4.712;2022-08-01T03:24:59;12.10;;;9.20;;
8777;SDS011;4425;50.872;4.712;2022-08-01T03:27:28;15.88;;;10.32;;
8777;SDS011;4425;50.872;4.712;2022-08-01T03:29:58;14.38;;;9.95;;
8777;SDS011;4425;50.872;4.712;2022-08-01T03:32:30;11.32;;;9.65;;
8777;SDS011;4425;50.872;4.712;2022-08-01T03:34:59;12.90;;;9.82;;
8777;SDS011;4425;50.872;4.712;2022-08-01T03:37:26;15.00;;;10.23;;
8777;SDS011;4425;50.872;4.712;2022-08-01T03:39:57;10.77;;;9.68;;
8777;SDS011;4425;50.872;4.712;2022-08-01T03:42:31;16.80;;;11.35;;
8777;SDS011;4425;50.872;4.712;2022-08-01T03:50:06;23.33;;;12.82;;
8777;SDS011;4425;50.872;4.712;2022-08-01T03:52:38;22.58;;;13.18;;
8777;SDS011;4425;50.872;4.712;2022-08-01T03:55:09;17.65;;;12.57;;
8777;SDS011;4425;50.872;4.712;2022-08-01T03:57:39;18.48;;;13.73;;
8777;SDS011;4425;50.872;4.712;2022-08-01T04:00:07;16.17;;;13.18;;
8777;SDS011;4425;50.872;4.712;2022-08-01T04:02:38;19.88;;;13.98;;
8777;SDS011;4425;50.872;4.712;2022-08-01T04:05:06;16.88;;;13.82;;
8777;SDS011;4425;50.872;4.712;2022-08-01T04:07:35;21.90;;;14.27;;
8777;SDS011;4425;50.872;4.712;2022-08-01T04:10:06;21.63;;;14.77;;
8777;SDS011;4425;50.872;4.712;2022-08-01T04:15:05;24.88;;;15.38;;
8777;SDS011;4425;50.872;4.712;2022-08-01T04:17:34;23.17;;;14.80;;
8777;SDS011;4425;50.872;4.712;2022-08-01T04:20:03;21.40;;;15.75;;
8777;SDS011;4425;50.872;4.712;2022-08-01T04:22:32;22.70;;;16.13;;
8777;SDS011;4425;50.872;4.712;2022-08-01T04:25:02;24.58;;;16.13;;
8777;SDS011;4425;50.872;4.712;2022-08-01T04:27:38;22.38;;;17.00;;
8777;SDS011;4425;50.872;4.712;2022-08-01T04:30:11;23.52;;;16.95;;
8777;SDS011;4425;50.872;4.712;2022-08-01T04:32:40;23.02;;;16.10;;
8777;SDS011;4425;50.872;4.712;2022-08-01T04:35:13;22.10;;;16.35;;
8777;SDS011;4425;50.872;4.712;2022-08-01T04:37:43;31.20;;;22.27;;
8777;SDS011;4425;50.872;4.712;2022-08-01T04:40:13;22.35;;;16.88;;
8777;SDS011;4425;50.872;4.712;2022-08-01T04:42:44;22.40;;;16.08;;
8777;SDS011;4425;50.872;4.712;2022-08-01T04:45:14;22.00;;;15.95;;
8777;SDS011;4425;50.872;4.712;2022-08-01T04:47:44;25.17;;;15.88;;
8777;SDS011;4425;50.872;4.712;2022-08-01T04:50:27;20.67;;;15.23;;
8777;SDS011;4425;50.872;4.712;2022-08-01T04:53:06;18.52;;;14.63;;
8777;SDS011;4425;50.872;4.712;2022-08-01T04:55:39;19.60;;;14.07;;
8777;SDS011;4425;50.872;4.712;2022-08-01T04:58:06;19.13;;;14.38;;
8777;SDS011;4425;50.872;4.712;2022-08-01T05:00:36;20.33;;;13.77;;
8777;SDS011;4425;50.872;4.712;2022-08-01T05:03:11;17.55;;;14.52;;
8777;SDS011;4425;50.872;4.712;2022-08-01T05:05:52;20.52;;;14.10;;
8777;SDS011;4425;50.872;4.712;2022-08-01T05:08:27;17.45;;;14.00;;
8777;SDS011;4425;50.872;4.712;2022-08-01T05:20:24;15.65;;;13.07;;
8777;SDS011;4425;50.872;4.712;2022-08-01T05:25:45;16.17;;;11.82;;
8777;SDS011;4425;50.872;4.712;2022-08-01T05:28:18;14.20;;;11.27;;
8777;SDS011;4425;50.872;4.712;2022-08-01T05:30:47;13.77;;;11.23;;
8777;SDS011;4425;50.872;4.712;2022-08-01T05:33:21;13.63;;;10.55;;
8777;SDS011;4425;50.872;4.712;2022-08-01T05:35:50;12.25;;;9.95;;
8777;SDS011;4425;50.872;4.712;2022-08-01T05:38:20;12.23;;;10.93;;
8777;SDS011;4425;50.872;4.712;2022-08-01T05:40:47;18.27;;;11.02;;
8777;SDS011;4425;50.872;4.712;2022-08-01T05:43:15;12.25;;;10.75;;
8777;SDS011;4425;50.872;4.712;2022-08-01T05:45:43;17.70;;;11.35;;
8777;SDS011;4425;50.872;4.712;2022-08-01T05:48:13;14.60;;;11.80;;
8777;SDS011;4425;50.872;4.712;2022-08-01T05:50:42;14.93;;;12.20;;
8777;SDS011;4425;50.872;4.712;2022-08-01T05:53:12;13.57;;;11.88;;
8777;SDS011;4425;50.872;4.712;2022-08-01T05:55:44;13.82;;;10.60;;
8777;SDS011;4425;50.872;4.712;2022-08-01T05:58:12;13.20;;;11.35;;
8777;SDS011;4425;50.872;4.712;2022-08-01T06:00:40;12.70;;;10.18;;
8777;SDS011;4425;50.872;4.712;2022-08-01T06:06:00;11.75;;;9.77;;
8777;SDS011;4425;50.872;4.712;2022-08-01T06:11:04;10.88;;;9.73;;
8777;SDS011;4425;50.872;4.712;2022-08-01T06:13:32;13.73;;;10.10;;
8777;SDS011;4425;50.872;4.712;2022-08-01T06:15:59;12.20;;;9.10;;
8777;SDS011;4425;50.872;4.712;2022-08-01T06:18:27;9.70;;;8.70;;
8777;SDS011;4425;50.872;4.712;2022-08-01T06:20:54;10.48;;;8.23;;
8777;SDS011;4425;50.872;4.712;2022-08-01T06:23:24;12.32;;;8.35;;
8777;SDS011;4425;50.872;4.712;2022-08-01T06:26:01;9.13;;;8.07;;
8777;SDS011;4425;50.872;4.712;2022-08-01T06:28:35;10.68;;;8.38;;
8777;SDS011;4425;50.872;4.712;2022-08-01T06:31:03;10.45;;;8.35;;
8777;SDS011;4425;50.872;4.712;2022-08-01T06:33:31;8.38;;;7.45;;
8777;SDS011;4425;50.872;4.712;2022-08-01T06:35:58;10.23;;;7.55;;
8777;SDS011;4425;50.872;4.712;2022-08-01T06:38:27;9.65;;;7.82;;
8777;SDS011;4425;50.872;4.712;2022-08-01T06:40:58;8.77;;;7.88;;
8777;SDS011;4425;50.872;4.712;2022-08-01T06:43:26;11.05;;;7.88;;
8777;SDS011;4425;50.872;4.712;2022-08-01T06:45:55;8.27;;;6.53;;
8777;SDS011;4425;50.872;4.712;2022-08-01T06:48:22;11.30;;;7.32;;
8777;SDS011;4425;50.872;4.712;2022-08-01T06:50:54;8.10;;;7.00;;
8777;SDS011;4425;50.872;4.712;2022-08-01T06:53:34;9.05;;;6.97;;
8777;SDS011;4425;50.872;4.712;2022-08-01T06:56:02;8.52;;;6.50;;
8777;SDS011;4425;50.872;4.712;2022-08-01T06:58:32;7.57;;;6.47;;
8777;SDS011;4425;50.872;4.712;2022-08-01T07:01:04;9.82;;;6.25;;
8777;SDS011;4425;50.872;4.712;2022-08-01T07:03:32;8.48;;;6.47;;
8777;SDS011;4425;50.872;4.712;2022-08-01T07:06:03;19.42;;;6.90;;
8777;SDS011;4425;50.872;4.712;2022-08-01T07:08:31;6.95;;;5.65;;
8777;SDS011;4425;50.872;4.712;2022-08-01T07:11:12;8.75;;;5.80;;
8777;SDS011;4425;50.872;4.712;2022-08-01T07:13:40;6.53;;;5.40;;
8777;SDS011;4425;50.872;4.712;2022-08-01T07:16:10;6.18;;;5.55;;
8777;SDS011;4425;50.872;4.712;2022-08-01T07:18:52;8.10;;;6.15;;
8777;SDS011;4425;50.872;4.712;2022-08-01T07:21:29;7.55;;;5.85;;
8777;SDS011;4425;50.872;4.712;2022-08-01T07:33:29;6.60;;;5.90;;
8777;SDS011;4425;50.872;4.712;2022-08-01T07:36:10;6.38;;;5.78;;
8777;SDS011;4425;50.872;4.712;2022-08-01T07:38:51;7.32;;;6.63;;
8777;SDS011;4425;50.872;4.712;2022-08-01T07:41:23;7.68;;;6.88;;
8777;SDS011;4425;50.872;4.712;2022-08-01T07:44:01;6.95;;;6.30;;
8777;SDS011;4425;50.872;4.712;2022-08-01T07:46:32;9.63;;;6.50;;
8777;SDS011;4425;50.872;4.712;2022-08-01T07:49:06;6.90;;;6.25;;
8777;SDS011;4425;50.872;4.712;2022-08-01T07:51:34;6.35;;;5.90;;
8777;SDS011;4425;50.872;4.712;2022-08-01T07:54:06;7.07;;;6.43;;
8777;SDS011;4425;50.872;4.712;2022-08-01T07:59:29;6.05;;;5.55;;
8777;SDS011;4425;50.872;4.712;2022-08-01T08:02:00;6.15;;;5.55;;
8777;SDS011;4425;50.872;4.712;2022-08-01T08:04:37;6.07;;;5.50;;
8777;SDS011;4425;50.872;4.712;2022-08-01T08:07:04;6.78;;;6.05;;
8777;SDS011;4425;50.872;4.712;2022-08-01T08:09:36;6.80;;;6.30;;
8777;SDS011;4425;50.872;4.712;2022-08-01T08:12:08;6.05;;;5.55;;
8777;SDS011;4425;50.872;4.712;2022-08-01T08:14:48;6.18;;;5.57;;
8777;SDS011;4425;50.872;4.712;2022-08-01T08:17:26;6.65;;;6.00;;
8777;SDS011;4425;50.872;4.712;2022-08-01T08:23:14;6.85;;;5.90;;
8777;SDS011;4425;50.872;4.712;2022-08-01T08:25:59;6.35;;;5.93;;
8777;SDS011;4425;50.872;4.712;2022-08-01T08:28:28;8.35;;;6.22;;
8777;SDS011;4425;50.872;4.712;2022-08-01T08:31:09;5.82;;;5.43;;
8777;SDS011;4425;50.872;4.712;2022-08-01T08:33:37;6.22;;;5.60;;
8777;SDS011;4425;50.872;4.712;2022-08-01T08:38:53;6.13;;;5.72;;
8777;SDS011;4425;50.872;4.712;2022-08-01T08:41:26;6.18;;;5.70;;
8777;SDS011;4425;50.872;4.712;2022-08-01T08:43:56;5.18;;;4.85;;
8777;SDS011;4425;50.872;4.712;2022-08-01T08:46:42;5.20;;;4.70;;
8777;SDS011;4425;50.872;4.712;2022-08-01T08:49:10;5.03;;;4.50;;
8777;SDS011;4425;50.872;4.712;2022-08-01T08:51:45;4.68;;;4.30;;
8777;SDS011;4425;50.872;4.712;2022-08-01T08:54:18;4.50;;;4.18;;
8777;SDS011;4425;50.872;4.712;2022-08-01T08:56:49;4.47;;;4.18;;
8777;SDS011;4425;50.872;4.712;2022-08-01T08:59:24;8.93;;;4.00;;
8777;SDS011;4425;50.872;4.712;2022-08-01T09:01:55;5.03;;;4.30;;
8777;SDS011;4425;50.872;4.712;2022-08-01T09:04:25;3.50;;;3.30;;
8777;SDS011;4425;50.872;4.712;2022-08-01T09:06:54;3.85;;;3.55;;
8777;SDS011;4425;50.872;4.712;2022-08-01T09:09:23;4.85;;;3.42;;
8777;SDS011;4425;50.872;4.712;2022-08-01T09:11:54;3.38;;;3.08;;
8777;SDS011;4425;50.872;4.712;2022-08-01T09:14:22;3.60;;;3.40;;
8777;SDS011;4425;50.872;4.712;2022-08-01T09:17:02;3.30;;;3.10;;
8777;SDS011;4425;50.872;4.712;2022-08-01T09:19:51;3.40;;;3.10;;
8777;SDS011;4425;50.872;4.712;2022-08-01T09:22:21;2.95;;;2.75;;
8777;SDS011;4425;50.872;4.712;2022-08-01T09:25:00;4.18;;;3.30;;
8777;SDS011;4425;50.872;4.712;2022-08-01T09:27:29;3.35;;;3.10;;
8777;SDS011;4425;50.872;4.712;2022-08-01T09:32:52;3.13;;;2.92;;
8777;SDS011;4425;50.872;4.712;2022-08-01T09:35:25;3.40;;;3.22;;
8777;SDS011;4425;50.872;4.712;2022-08-01T09:38:13;2.90;;;2.80;;
8777;SDS011;4425;50.872;4.712;2022-08-01T09:43:37;4.50;;;4.20;;
8777;SDS011;4425;50.872;4.712;2022-08-01T09:46:08;4.15;;;3.95;;
8777;SDS011;4425;50.872;4.712;2022-08-01T09:48:41;3.97;;;3.78;;
8777;SDS011;4425;50.872;4.712;2022-08-01T09:51:32;3.88;;;3.67;;
8777;SDS011;4425;50.872;4.712;2022-08-01T09:54:14;4.72;;;4.43;;
8777;SDS011;4425;50.872;4.712;2022-08-01T09:57:11;5.05;;;4.60;;
8777;SDS011;4425;50.872;4.712;2022-08-01T09:59:42;4.10;;;3.80;;
8777;SDS011;4425;50.872;4.712;2022-08-01T10:02:14;4.35;;;3.70;;
8777;SDS011;4425;50.872;4.712;2022-08-01T10:05:08;3.75;;;3.55;;
8777;SDS011;4425;50.872;4.712;2022-08-01T10:10:43;3.80;;;3.53;;
8777;SDS011;4425;50.872;4.712;2022-08-01T10:13:57;3.00;;;2.90;;
8777;SDS011;4425;50.872;4.712;2022-08-01T10:16:30;3.05;;;2.80;;
8777;SDS011;4425;50.872;4.712;2022-08-01T10:19:02;3.10;;;3.00;;
8777;SDS011;4425;50.872;4.712;2022-08-01T10:21:53;3.45;;;3.25;;
8777;SDS011;4425;50.872;4.712;2022-08-01T10:24:24;3.33;;;2.95;;
8777;SDS011;4425;50.872;4.712;2022-08-01T10:27:01;4.63;;;3.10;;
8777;SDS011;4425;50.872;4.712;2022-08-01T10:29:48;3.08;;;2.97;;
8777;SDS011;4425;50.872;4.712;2022-08-01T10:32:21;2.90;;;2.70;;
8777;SDS011;4425;50.872;4.712;2022-08-01T10:34:51;2.90;;;2.70;;
8777;SDS011;4425;50.872;4.712;2022-08-01T10:37:22;2.80;;;2.70;;
8777;SDS011;4425;50.872;4.712;2022-08-01T10:39:50;3.30;;;3.00;;
8777;SDS011;4425;50.872;4.712;2022-08-01T10:55:49;2.92;;;2.80;;
8777;SDS011;4425;50.872;4.712;2022-08-01T10:58:22;3.30;;;2.92;;
8777;SDS011;4425;50.872;4.712;2022-08-01T11:03:46;2.88;;;2.67;;
8777;SDS011;4425;50.872;4.712;2022-08-01T11:06:25;2.92;;;2.83;;
8777;SDS011;4425;50.872;4.712;2022-08-01T11:09:05;2.90;;;2.70;;
8777;SDS011;4425;50.872;4.712;2022-08-01T11:11:56;2.95;;;2.83;;
8777;SDS011;4425;50.872;4.712;2022-08-01T11:14:27;3.50;;;3.30;;
8777;SDS011;4425;50.872;4.712;2022-08-01T11:26:07;4.13;;;2.97;;
8777;SDS011;4425;50.872;4.712;2022-08-01T11:28:42;7.00;;;2.97;;
8777;SDS011;4425;50.872;4.712;2022-08-01T11:31:29;2.67;;;2.60;;
8777;SDS011;4425;50.872;4.712;2022-08-01T11:34:11;2.78;;;2.67;;
8777;SDS011;4425;50.872;4.712;2022-08-01T11:40:23;2.95;;;2.75;;
8777;SDS011;4425;50.872;4.712;2022-08-01T11:45:50;2.63;;;2.53;;
8777;SDS011;4425;50.872;4.712;2022-08-01T11:48:21;3.63;;;2.38;;
8777;SDS011;4425;50.872;4.712;2022-08-01T11:53:24;2.38;;;2.20;;
8777;SDS011;4425;50.872;4.712;2022-08-01T11:55:58;2.33;;;2.20;;
8777;SDS011;4425;50.872;4.712;2022-08-01T12:01:13;2.97;;;2.38;;
8777;SDS011;4425;50.872;4.712;2022-08-01T12:03:45;2.45;;;2.30;;
8777;SDS011;4425;50.872;4.712;2022-08-01T12:06:26;2.10;;;2.00;;
8777;SDS011;4425;50.872;4.712;2022-08-01T12:09:20;2.13;;;2.05;;
8777;SDS011;4425;50.872;4.712;2022-08-01T12:11:56;2.05;;;1.90;;
8777;SDS011;4425;50.872;4.712;2022-08-01T12:14:29;2.45;;;2.13;;
8777;SDS011;4425;50.872;4.712;2022-08-01T12:16:59;1.90;;;1.70;;
8777;SDS011;4425;50.872;4.712;2022-08-01T12:19:27;2.63;;;1.80;;
8777;SDS011;4425;50.872;4.712;2022-08-01T12:22:10;2.08;;;1.90;;
8777;SDS011;4425;50.872;4.712;2022-08-01T12:24:39;3.60;;;1.80;;
8777;SDS011;4425;50.872;4.712;2022-08-01T12:27:32;1.85;;;1.67;;
8777;SDS011;4425;50.872;4.712;2022-08-01T12:32:36;5.80;;;1.60;;
8777;SDS011;4425;50.872;4.712;2022-08-01T12:35:13;2.40;;;1.70;;
8777;SDS011;4425;50.872;4.712;2022-08-01T12:37:59;4.00;;;1.80;;
8777;SDS011;4425;50.872;4.712;2022-08-01T12:40:35;3.00;;;1.70;;
8777;SDS011;4425;50.872;4.712;2022-08-01T12:51:42;2.88;;;1.52;;
8777;SDS011;4425;50.872;4.712;2022-08-01T12:54:23;2.03;;;1.50;;
8777;SDS011;4425;50.872;4.712;2022-08-01T12:56:54;1.60;;;1.50;;
8777;SDS011;4425;50.872;4.712;2022-08-01T12:59:36;1.60;;;1.50;;
8777;SDS011;4425;50.872;4.712;2022-08-01T13:04:56;1.60;;;1.50;;
8777;SDS011;4425;50.872;4.712;2022-08-01T13:17:04;3.63;;;1.45;;
8777;SDS011;4425;50.872;4.712;2022-08-01T13:20:07;3.33;;;1.60;;
8777;SDS011;4425;50.872;4.712;2022-08-01T13:22:44;3.78;;;3.30;;
8777;SDS011;4425;50.872;4.712;2022-08-01T13:25:25;1.50;;;1.40;;
8777;SDS011;4425;50.872;4.712;2022-08-01T13:28:14;1.85;;;1.50;;
8777;SDS011;4425;50.872;4.712;2022-08-01T13:34:30;3.13;;;1.40;;
8777;SDS011;4425;50.872;4.712;2022-08-01T13:43:48;1.92;;;1.40;;
8777;SDS011;4425;50.872;4.712;2022-08-01T13:49:58;2.17;;;1.40;;
8777;SDS011;4425;50.872;4.712;2022-08-01T13:52:28;1.65;;;1.55;;
8777;SDS011;4425;50.872;4.712;2022-08-01T13:54:58;2.97;;;1.25;;
8777;SDS011;4425;50.872;4.712;2022-08-01T14:08:37;2.33;;;1.48;;
8777;SDS011;4425;50.872;4.712;2022-08-01T14:14:03;1.50;;;1.40;;
8777;SDS011;4425;50.872;4.712;2022-08-01T14:16:32;2.45;;;1.60;;
8777;SDS011;4425;50.872;4.712;2022-08-01T14:19:03;1.67;;;1.50;;
8777;SDS011;4425;50.872;4.712;2022-08-01T14:21:30;1.58;;;1.42;;
8777;SDS011;4425;50.872;4.712;2022-08-01T14:24:00;1.50;;;1.40;;
8777;SDS011;4425;50.872;4.712;2022-08-01T14:29:43;1.70;;;1.60;;
8777;SDS011;4425;50.872;4.712;2022-08-01T14:32:31;2.38;;;1.40;;
8777;SDS011;4425;50.872;4.712;2022-08-01T14:35:01;1.30;;;1.30;;
8777;SDS011;4425;50.872;4.712;2022-08-01T14:37:31;1.40;;;1.30;;
8777;SDS011;4425;50.872;4.712;2022-08-01T14:40:15;4.25;;;1.58;;
8777;SDS011;4425;50.872;4.712;2022-08-01T14:42:44;2.85;;;1.40;;
8777;SDS011;4425;50.872;4.712;2022-08-01T14:45:27;1.63;;;1.50;;
8777;SDS011;4425;50.872;4.712;2022-08-01T14:48:00;2.75;;;1.42;;
8777;SDS011;4425;50.872;4.712;2022-08-01T14:50:43;2.65;;;1.52;;
8777;SDS011;4425;50.872;4.712;2022-08-01T14:53:13;1.92;;;1.77;;
8777;SDS011;4425;50.872;4.712;2022-08-01T14:55:48;2.63;;;1.70;;
8777;SDS011;4425;50.872;4.712;2022-08-01T14:58:31;1.77;;;1.67;;
8777;SDS011;4425;50.872;4.712;2022-08-01T15:01:02;1.58;;;1.45;;
8777;SDS011;4425;50.872;4.712;2022-08-01T15:03:30;1.88;;;1.77;;
8777;SDS011;4425;50.872;4.712;2022-08-01T15:05:58;2.03;;;1.60;;
8777;SDS011;4425;50.872;4.712;2022-08-01T15:08:25;1.80;;;1.70;;
8777;SDS011;4425;50.872;4.712;2022-08-01T15:10:55;1.50;;;1.50;;
8777;SDS011;4425;50.872;4.712;2022-08-01T15:13:24;2.92;;;1.38;;
8777;SDS011;4425;50.872;4.712;2022-08-01T15:15:53;1.92;;;1.40;;
8777;SDS011;4425;50.872;4.712;2022-08-01T15:18:23;1.50;;;1.40;;
8777;SDS011;4425;50.872;4.712;2022-08-01T15:20:51;1.65;;;1.50;;
8777;SDS011;4425;50.872;4.712;2022-08-01T15:23:27;1.45;;;1.35;;
8777;SDS011;4425;50.872;4.712;2022-08-01T15:28:31;2.60;;;1.50;;
8777;SDS011;4425;50.872;4.712;2022-08-01T15:31:00;2.03;;;1.48;;
8777;SDS011;4425;50.872;4.712;2022-08-01T15:33:34;1.70;;;1.50;;
8777;SDS011;4425;50.872;4.712;2022-08-01T15:36:14;3.13;;;1.42;;
8777;SDS011;4425;50.872;4.712;2022-08-01T15:38:45;1.50;;;1.40;;
8777;SDS011;4425;50.872;4.712;2022-08-01T15:41:27;1.55;;;1.52;;
8777;SDS011;4425;50.872;4.712;2022-08-01T15:43:54;2.35;;;1.48;;
8777;SDS011;4425;50.872;4.712;2022-08-01T15:46:26;1.48;;;1.42;;
8777;SDS011;4425;50.872;4.712;2022-08-01T15:48:56;1.70;;;1.60;;
8777;SDS011;4425;50.872;4.712;2022-08-01T15:51:26;1.38;;;1.38;;
8777;SDS011;4425;50.872;4.712;2022-08-01T15:53:54;2.75;;;1.40;;
8777;SDS011;4425;50.872;4.712;2022-08-01T15:56:22;1.65;;;1.55;;
8777;SDS011;4425;50.872;4.712;2022-08-01T15:58:51;1.30;;;1.30;;
8777;SDS011;4425;50.872;4.712;2022-08-01T16:01:22;2.17;;;1.50;;
8777;SDS011;4425;50.872;4.712;2022-08-01T16:03:50;2.47;;;1.42;;
8777;SDS011;4425;50.872;4.712;2022-08-01T16:06:21;1.45;;;1.35;;
8777;SDS011;4425;50.872;4.712;2022-08-01T16:08:49;1.40;;;1.40;;
8777;SDS011;4425;50.872;4.712;2022-08-01T16:11:18;2.22;;;1.35;;
8777;SDS011;4425;50.872;4.712;2022-08-01T16:13:51;1.63;;;1.35;;
8777;SDS011;4425;50.872;4.712;2022-08-01T16:16:27;1.60;;;1.50;;
8777;SDS011;4425;50.872;4.712;2022-08-01T16:18:55;1.58;;;1.38;;
8777;SDS011;4425;50.872;4.712;2022-08-01T16:21:29;1.83;;;1.50;;
8777;SDS011;4425;50.872;4.712;2022-08-01T16:23:58;2.85;;;1.55;;
8777;SDS011;4425;50.872;4.712;2022-08-01T16:26:36;2.15;;;1.50;;
8777;SDS011;4425;50.872;4.712;2022-08-01T16:29:05;2.55;;;1.55;;
8777;SDS011;4425;50.872;4.712;2022-08-01T16:31:41;1.58;;;1.48;;
8777;SDS011;4425;50.872;4.712;2022-08-01T16:34:31;1.60;;;1.50;;
8777;SDS011;4425;50.872;4.712;2022-08-01T16:40:29;2.83;;;1.55;;
8777;SDS011;4425;50.872;4.712;2022-08-01T16:45:49;1.80;;;1.70;;
8777;SDS011;4425;50.872;4.712;2022-08-01T16:48:16;4.57;;;1.63;;
8777;SDS011;4425;50.872;4.712;2022-08-01T16:50:47;1.60;;;1.50;;
8777;SDS011;4425;50.872;4.712;2022-08-01T16:53:17;1.83;;;1.67;;
8777;SDS011;4425;50.872;4.712;2022-08-01T16:58:30;2.65;;;2.00;;
8777;SDS011;4425;50.872;4.712;2022-08-01T17:00:57;1.50;;;1.50;;
8777;SDS011;4425;50.872;4.712;2022-08-01T17:03:25;2.85;;;1.60;;
8777;SDS011;4425;50.872;4.712;2022-08-01T17:05:56;1.70;;;1.60;;
8777;SDS011;4425;50.872;4.712;2022-08-01T17:08:27;2.92;;;1.70;;
8777;SDS011;4425;50.872;4.712;2022-08-01T17:14:00;1.60;;;1.50;;
8777;SDS011;4425;50.872;4.712;2022-08-01T17:16:28;2.45;;;1.80;;
8777;SDS011;4425;50.872;4.712;2022-08-01T17:18:55;2.78;;;1.80;;
8777;SDS011;4425;50.872;4.712;2022-08-01T17:21:24;1.80;;;1.70;;
8777;SDS011;4425;50.872;4.712;2022-08-01T17:23:51;1.90;;;1.60;;
8777;SDS011;4425;50.872;4.712;2022-08-01T17:26:20;2.55;;;1.98;;
8777;SDS011;4425;50.872;4.712;2022-08-01T17:28:51;1.70;;;1.60;;
8777;SDS011;4425;50.872;4.712;2022-08-01T17:31:19;3.55;;;1.80;;
8777;SDS011;4425;50.872;4.712;2022-08-01T17:33:48;1.67;;;1.58;;
8777;SDS011;4425;50.872;4.712;2022-08-01T17:36:15;2.97;;;1.75;;
8777;SDS011;4425;50.872;4.712;2022-08-01T17:38:45;1.63;;;1.48;;
8777;SDS011;4425;50.872;4.712;2022-08-01T17:41:13;3.58;;;1.60;;
8777;SDS011;4425;50.872;4.712;2022-08-01T17:43:41;1.73;;;1.63;;
8777;SDS011;4425;50.872;4.712;2022-08-01T17:46:11;1.83;;;1.70;;
8777;SDS011;4425;50.872;4.712;2022-08-01T17:48:39;1.70;;;1.60;;
8777;SDS011;4425;50.872;4.712;2022-08-01T17:51:09;1.75;;;1.50;;
8777;SDS011;4425;50.872;4.712;2022-08-01T17:53:36;2.13;;;1.90;;
8777;SDS011;4425;50.872;4.712;2022-08-01T17:56:06;2.83;;;1.65;;
8777;SDS011;4425;50.872;4.712;2022-08-01T17:58:35;1.75;;;1.65;;
8777;SDS011;4425;50.872;4.712;2022-08-01T18:01:03;1.50;;;1.50;;
8777;SDS011;4425;50.872;4.712;2022-08-01T18:03:46;1.52;;;1.40;;
8777;SDS011;4425;50.872;4.712;2022-08-01T18:06:16;5.45;;;1.67;;
8777;SDS011;4425;50.872;4.712;2022-08-01T18:09:20;4.75;;;1.77;;
8777;SDS011;4425;50.872;4.712;2022-08-01T18:11:56;1.88;;;1.70;;
8777;SDS011;4425;50.872;4.712;2022-08-01T18:14:35;1.73;;;1.63;;
8777;SDS011;4425;50.872;4.712;2022-08-01T18:17:13;3.88;;;1.92;;
8777;SDS011;4425;50.872;4.712;2022-08-01T18:19:56;1.90;;;1.60;;
8777;SDS011;4425;50.872;4.712;2022-08-01T18:22:25;3.17;;;2.00;;
8777;SDS011;4425;50.872;4.712;2022-08-01T18:24:53;3.55;;;1.90;;
8777;SDS011;4425;50.872;4.712;2022-08-01T18:27:24;4.07;;;1.98;;
8777;SDS011;4425;50.872;4.712;2022-08-01T18:29:54;2.85;;;2.65;;
8777;SDS011;4425;50.872;4.712;2022-08-01T18:49:04;1.80;;;1.70;;
8777;SDS011;4425;50.872;4.712;2022-08-01T18:54:51;2.55;;;1.90;;
8777;SDS011;4425;50.872;4.712;2022-08-01T18:57:47;2.00;;;1.85;;
8777;SDS011;4425;50.872;4.712;2022-08-01T19:06:57;3.53;;;2.42;;